Time;durP1;ratioP1;P1;durP2;ratioP2;P2;SDS_P1;SDS_P2;PMS_P1;PMS_P2;Temp;Humidity;BMP_temperature;BMP_pressure;BME280_temperature;BME280_humidity;BME280_pressure;Samples;Min_cycle;Max_cycle;Signal;HPM_P1;HPM_P2
2021/07/26 00:00:47;;;;;;;15.67;4.23;;;18.50;1.00;;;;;;5014439;28;20183;-73
2021/07/26 00:03:13;;;;;;;6.80;3.20;;;18.40;1.00;;;;;;5017663;28;20179;-73
2021/07/26 00:05:38;;;;;;;6.47;3.47;;;18.30;6.20;;;;;;5019950;28;20446;-73
2021/07/26 00:08:04;;;;;;;4.90;3.40;;;18.30;25.10;;;;;;5014062;28;20547;-73
2021/07/26 00:10:30;;;;;;;4.23;3.73;;;18.30;4.00;;;;;;5010471;28;20260;-73
2021/07/26 00:12:56;;;;;;;5.47;3.50;;;18.20;13.00;;;;;;5015129;28;20446;-72
2021/07/26 00:15:21;;;;;;;4.83;3.30;;;18.20;1.00;;;;;;5017185;28;20176;-73
2021/07/26 00:17:47;;;;;;;3.90;3.40;;;18.20;11.00;;;;;;5016495;28;20661;-73
2021/07/26 00:20:15;;;;;;;5.17;3.53;;;18.20;1.00;;;;;;5015538;28;20188;-73
2021/07/26 00:22:41;;;;;;;5.63;3.63;;;18.20;1.00;;;;;;5008656;28;20200;-73
2021/07/26 00:25:07;;;;;;;3.77;2.80;;;18.20;1.00;;;;;;5017861;28;20469;-73
2021/07/26 00:27:34;;;;;;;3.60;3.10;;;18.20;1.00;;;;;;5020803;28;20188;-73
2021/07/26 00:30:00;;;;;;;7.20;3.50;;;18.20;1.00;;;;;;5015360;28;20453;-73
2021/07/26 00:32:29;;;;;;;4.73;3.10;;;18.20;1.00;;;;;;5018248;28;20479;-73
2021/07/26 00:34:55;;;;;;;4.70;3.80;;;18.20;1.00;;;;;;5019256;28;20583;-73
2021/07/26 00:37:20;;;;;;;3.63;3.33;;;18.10;1.00;;;;;;5015581;28;20482;-73
2021/07/26 00:39:46;;;;;;;4.20;3.03;;;18.10;1.00;;;;;;5013238;28;20582;-73
2021/07/26 00:42:12;;;;;;;9.13;3.23;;;18.10;1.00;;;;;;5015768;28;20226;-73
2021/07/26 00:44:37;;;;;;;3.83;3.10;;;18.10;1.00;;;;;;5014477;28;20191;-73
2021/07/26 00:47:03;;;;;;;4.00;2.90;;;18.10;1.00;;;;;;5018140;28;20186;-73
2021/07/26 00:49:29;;;;;;;5.50;3.07;;;18.10;1.00;;;;;;5018340;28;20188;-73
2021/07/26 00:51:58;;;;;;;4.83;3.50;;;18.10;1.00;;;;;;5014483;28;20605;-74
2021/07/26 00:54:28;;;;;;;6.53;4.20;;;18.10;1.00;;;;;;5012921;28;20516;-73
2021/07/26 00:56:56;;;;;;;6.80;4.07;;;18.10;1.00;;;;;;5015343;28;20484;-73
2021/07/26 00:59:23;;;;;;;3.70;2.90;;;18.10;1.00;;;;;;5012925;28;20438;-74
2021/07/26 01:01:49;;;;;;;4.07;3.20;;;18.10;1.00;;;;;;5016130;28;20585;-73
2021/07/26 01:04:14;;;;;;;4.57;2.97;;;18.10;1.00;;;;;;5015263;28;20589;-73
2021/07/26 01:06:40;;;;;;;7.67;3.00;;;18.10;1.00;;;;;;5015077;28;20220;-73
2021/07/26 01:09:06;;;;;;;5.40;2.80;;;18.10;1.00;;;;;;5012764;28;20451;-73
2021/07/26 01:11:32;;;;;;;4.50;2.90;;;18.10;1.00;;;;;;5016273;28;20552;-73
2021/07/26 01:13:57;;;;;;;4.40;3.30;;;18.20;1.00;;;;;;5012451;28;20195;-73
2021/07/26 01:16:23;;;;;;;3.63;3.00;;;18.20;1.00;;;;;;5019861;28;20183;-72
2021/07/26 01:18:50;;;;;;;5.70;3.00;;;18.20;1.00;;;;;;5014559;28;20220;-73
2021/07/26 01:21:18;;;;;;;3.70;2.87;;;18.20;1.00;;;;;;5016009;28;20210;-73
2021/07/26 01:23:45;;;;;;;3.67;2.90;;;18.30;1.00;;;;;;5015194;28;20541;-73
2021/07/26 01:26:15;;;;;;;6.90;3.13;;;18.20;1.00;;;;;;5012062;28;20438;-73
2021/07/26 01:28:43;;;;;;;4.60;2.70;;;18.30;1.00;;;;;;5017967;28;20442;-73
2021/07/26 01:31:10;;;;;;;4.00;3.00;;;18.20;1.00;;;;;;5012362;28;20451;-74
2021/07/26 01:33:36;;;;;;;4.50;3.23;;;18.20;1.00;;;;;;5013989;28;20452;-73
2021/07/26 01:36:02;;;;;;;4.63;2.50;;;18.20;1.00;;;;;;5020031;28;20462;-73
2021/07/26 01:38:28;;;;;;;6.87;3.00;;;18.30;1.00;;;;;;5014367;28;20227;-72
2021/07/26 01:40:55;;;;;;;4.63;2.63;;;18.30;1.00;;;;;;5010869;28;20866;-73
2021/07/26 01:43:24;;;;;;;3.47;2.87;;;18.30;1.00;;;;;;5006991;28;20458;-73
2021/07/26 01:46:12;;;;;;;4.37;3.20;;;18.40;1.00;;;;;;5012174;28;20529;-74
2021/07/26 01:48:41;;;;;;;5.17;2.90;;;18.40;1.00;;;;;;5014728;28;20457;-73
2021/07/26 01:51:14;;;;;;;4.00;3.13;;;18.40;1.00;;;;;;5007177;28;20458;-73
2021/07/26 01:53:42;;;;;;;3.20;2.57;;;18.40;1.00;;;;;;5013748;28;20474;-73
2021/07/26 01:56:08;;;;;;;3.13;2.23;;;18.20;1.00;;;;;;5009625;28;20446;-73
2021/07/26 01:58:34;;;;;;;6.27;3.17;;;18.20;1.00;;;;;;5027875;28;20919;-73
2021/07/26 02:01:00;;;;;;;5.53;3.20;;;18.10;1.00;;;;;;5013725;28;20271;-74
2021/07/26 02:03:25;;;;;;;5.60;3.40;;;18.10;1.00;;;;;;5011422;28;20947;-72
2021/07/26 02:05:51;;;;;;;5.80;3.50;;;18.10;1.00;;;;;;5012463;28;20234;-72
2021/07/26 02:08:17;;;;;;;3.23;2.90;;;18.00;1.00;;;;;;5016691;28;20740;-72
2021/07/26 02:10:42;;;;;;;3.93;3.00;;;18.00;1.00;;;;;;5007221;28;20516;-72
2021/07/26 02:13:08;;;;;;;4.20;3.30;;;18.00;1.00;;;;;;5013889;28;20207;-72
2021/07/26 02:15:33;;;;;;;5.23;3.87;;;18.00;1.00;;;;;;5016523;28;20188;-72
2021/07/26 02:17:59;;;;;;;5.03;3.27;;;17.90;1.00;;;;;;5016465;28;20553;-73
2021/07/26 02:20:25;;;;;;;3.73;2.90;;;17.90;1.00;;;;;;5012453;28;20184;-72
2021/07/26 02:22:50;;;;;;;4.40;2.43;;;17.90;1.00;;;;;;5012427;28;20204;-72
2021/07/26 02:25:17;;;;;;;5.87;3.43;;;18.00;1.00;;;;;;5013903;28;20210;-72
2021/07/26 02:27:44;;;;;;;7.47;3.40;;;17.90;1.00;;;;;;5016346;28;20215;-73
2021/07/26 02:30:10;;;;;;;4.13;3.20;;;17.90;1.00;;;;;;5013709;28;20458;-72
2021/07/26 02:32:36;;;;;;;8.10;2.77;;;18.00;1.00;;;;;;5014021;28;20899;-73
2021/07/26 02:35:01;;;;;;;3.50;2.70;;;18.00;1.00;;;;;;5016591;28;20216;-73
2021/07/26 02:37:27;;;;;;;5.37;3.67;;;18.00;1.00;;;;;;5012920;28;20253;-73
2021/07/26 02:39:52;;;;;;;5.37;2.80;;;17.90;1.00;;;;;;5014492;28;20188;-72
2021/07/26 02:42:18;;;;;;;3.60;2.50;;;18.00;1.00;;;;;;5017811;28;20191;-72
2021/07/26 02:44:44;;;;;;;3.07;2.43;;;18.00;1.00;;;;;;5017946;28;20219;-73
2021/07/26 02:47:09;;;;;;;4.40;2.60;;;18.10;1.00;;;;;;5015858;28;20624;-73
2021/07/26 02:49:35;;;;;;;4.57;2.87;;;18.20;1.00;;;;;;5012108;28;20175;-72
2021/07/26 02:52:01;;;;;;;5.33;2.90;;;18.20;1.00;;;;;;5011354;28;20809;-72
2021/07/26 02:54:26;;;;;;;4.63;2.73;;;18.30;1.00;;;;;;5014419;28;20784;-72
2021/07/26 02:56:52;;;;;;;3.50;2.60;;;18.30;1.00;;;;;;5015274;28;20341;-72
2021/07/26 02:59:17;;;;;;;4.53;2.93;;;18.30;1.00;;;;;;5019726;28;20203;-72
2021/07/26 03:01:43;;;;;;;4.70;3.30;;;18.30;1.00;;;;;;5016180;28;20262;-73
2021/07/26 03:04:10;;;;;;;4.80;3.27;;;18.30;1.00;;;;;;5021014;28;20207;-73
2021/07/26 03:06:36;;;;;;;4.97;3.00;;;18.30;1.00;;;;;;5021770;28;20202;-73
2021/07/26 03:09:02;;;;;;;4.23;3.23;;;18.30;1.00;;;;;;5015369;28;20475;-73
2021/07/26 03:11:27;;;;;;;3.83;3.03;;;18.30;1.00;;;;;;5015580;28;20206;-73
2021/07/26 03:13:53;;;;;;;4.10;3.03;;;18.40;1.00;;;;;;5015680;28;20442;-72
2021/07/26 03:16:19;;;;;;;3.63;2.50;;;18.20;1.00;;;;;;5019268;28;20187;-72
2021/07/26 03:18:44;;;;;;;3.50;2.50;;;18.30;1.00;;;;;;5016403;28;20298;-72
2021/07/26 03:21:15;;;;;;;4.93;2.93;;;18.20;1.00;;;;;;5018777;28;20215;-72
2021/07/26 03:23:41;;;;;;;6.03;3.07;;;18.20;1.00;;;;;;5017028;28;20203;-72
2021/07/26 03:26:07;;;;;;;4.60;3.53;;;18.20;1.00;;;;;;5019237;28;20824;-72
2021/07/26 03:28:33;;;;;;;5.20;3.03;;;18.20;1.00;;;;;;5018191;28;20507;-72
2021/07/26 03:30:59;;;;;;;4.70;2.83;;;18.20;1.00;;;;;;5005773;28;20186;-73
2021/07/26 03:33:25;;;;;;;4.70;3.60;;;18.20;1.00;;;;;;5012724;28;20560;-72
2021/07/26 03:35:51;;;;;;;4.43;3.03;;;18.20;1.00;;;;;;5009133;28;20517;-72
2021/07/26 03:38:21;;;;;;;6.17;2.63;;;18.10;1.00;;;;;;5011142;28;20577;-72
2021/07/26 03:40:47;;;;;;;3.70;3.10;;;18.10;1.00;;;;;;5013452;28;20188;-72
2021/07/26 03:43:13;;;;;;;3.30;2.60;;;18.10;1.00;;;;;;5010690;28;20717;-72
2021/07/26 03:45:39;;;;;;;4.30;3.57;;;18.10;1.00;;;;;;5011983;28;20526;-72
2021/07/26 03:48:05;;;;;;;7.77;3.97;;;18.10;1.00;;;;;;5016757;28;20684;-73
2021/07/26 03:50:31;;;;;;;4.00;3.10;;;18.20;1.00;;;;;;5018885;28;20286;-72
2021/07/26 03:52:58;;;;;;;4.80;3.53;;;18.20;1.00;;;;;;5016230;28;20549;-72
2021/07/26 03:55:34;;;;;;;5.00;3.23;;;18.20;1.00;;;;;;5022352;28;20215;-72
2021/07/26 03:58:00;;;;;;;6.47;3.30;;;18.10;1.00;;;;;;5035628;28;21007;-72
2021/07/26 04:00:27;;;;;;;7.33;3.30;;;18.10;1.00;;;;;;5021494;28;20458;-72
2021/07/26 04:05:50;;;;;;;9.70;4.30;;;18.00;1.00;;;;;;5021002;28;20487;-72
2021/07/26 04:08:19;;;;;;;3.70;3.30;;;18.00;1.00;;;;;;5019374;28;20458;-72
2021/07/26 04:10:51;;;;;;;4.93;3.60;;;18.00;1.00;;;;;;5023111;28;20484;-72
2021/07/26 04:13:17;;;;;;;5.43;3.30;;;18.00;1.00;;;;;;5021861;28;20454;-72
2021/07/26 04:15:45;;;;;;;3.53;3.20;;;18.10;1.00;;;;;;5017105;28;20447;-72
2021/07/26 04:18:12;;;;;;;4.23;3.57;;;18.10;1.00;;;;;;5017746;28;20207;-72
2021/07/26 04:20:38;;;;;;;5.40;3.30;;;18.20;1.00;;;;;;5017142;28;20450;-72
2021/07/26 04:23:04;;;;;;;4.43;3.23;;;18.20;1.00;;;;;;5021931;28;20450;-72
2021/07/26 04:25:29;;;;;;;7.10;3.30;;;18.20;1.00;;;;;;5024548;28;20982;-71
2021/07/26 04:27:55;;;;;;;5.43;4.10;;;18.10;1.00;;;;;;5026460;28;20187;-72
2021/07/26 04:30:21;;;;;;;7.00;3.57;;;18.10;1.00;;;;;;5022044;28;20196;-72
2021/07/26 04:32:48;;;;;;;5.73;3.40;;;18.10;1.00;;;;;;5027370;28;20196;-72
2021/07/26 04:35:15;;;;;;;6.27;3.63;;;18.10;1.00;;;;;;5024193;28;20243;-72
2021/07/26 04:37:42;;;;;;;4.13;3.73;;;18.10;1.00;;;;;;5018367;28;20654;-71
2021/07/26 04:40:08;;;;;;;5.87;3.57;;;18.10;1.00;;;;;;5026596;28;20963;-71
2021/07/26 04:42:42;;;;;;;4.67;3.80;;;18.00;1.00;;;;;;5024618;28;20465;-72
2021/07/26 04:45:09;;;;;;;5.77;3.90;;;18.00;1.00;;;;;;5014290;28;20461;-71
2021/07/26 04:47:35;;;;;;;3.40;3.10;;;18.00;1.00;;;;;;5010625;28;20537;-72
2021/07/26 04:50:02;;;;;;;6.37;3.30;;;18.00;1.00;;;;;;5026258;28;20450;-71
2021/07/26 04:52:28;;;;;;;6.17;4.10;;;18.00;1.00;;;;;;5025035;28;20998;-71
2021/07/26 04:54:54;;;;;;;7.90;3.70;;;18.00;1.00;;;;;;5017913;28;20557;-72
2021/07/26 04:57:19;;;;;;;3.63;3.30;;;18.10;1.00;;;;;;5021493;28;20627;-72
2021/07/26 04:59:45;;;;;;;10.53;3.70;;;18.10;1.00;;;;;;5015098;28;20181;-72
2021/07/26 05:02:11;;;;;;;8.80;3.93;;;18.10;1.00;;;;;;5010567;28;20269;-72
2021/07/26 05:04:38;;;;;;;6.07;3.90;;;18.10;1.00;;;;;;5018096;28;20184;-71
2021/07/26 05:07:03;;;;;;;6.27;3.63;;;18.20;1.00;;;;;;5013569;28;20435;-72
2021/07/26 05:09:30;;;;;;;6.00;3.90;;;18.30;1.00;;;;;;5022287;28;21397;-72
2021/07/26 05:12:15;;;;;;;4.33;3.40;;;18.40;1.00;;;;;;5019874;28;20257;-72
2021/07/26 05:14:49;;;;;;;4.33;3.90;;;18.40;1.00;;;;;;5009353;28;20457;-72
2021/07/26 05:17:23;;;;;;;4.10;3.30;;;18.50;1.00;;;;;;5020439;28;20474;-72
2021/07/26 05:19:49;;;;;;;8.73;4.03;;;18.60;1.00;;;;;;5025797;28;22754;-72
2021/07/26 05:22:15;;;;;;;4.10;3.20;;;18.70;1.00;;;;;;5009617;28;20449;-72
2021/07/26 05:24:42;;;;;;;5.27;3.53;;;18.80;1.00;;;;;;5000155;28;23492;-72
2021/07/26 05:27:08;;;;;;;5.43;3.67;;;18.90;1.00;;;;;;5010113;28;20194;-72
2021/07/26 05:29:34;;;;;;;5.03;3.53;;;18.90;1.00;;;;;;4996723;28;20964;-72
2021/07/26 05:32:00;;;;;;;5.53;3.40;;;18.90;1.00;;;;;;5009726;28;20236;-72
2021/07/26 05:34:27;;;;;;;4.60;3.00;;;19.00;1.00;;;;;;5012442;28;20482;-72
2021/07/26 05:36:53;;;;;;;5.07;3.40;;;19.00;1.00;;;;;;5003163;28;20877;-72
2021/07/26 05:39:19;;;;;;;7.60;3.33;;;19.10;1.00;;;;;;5014659;28;20470;-72
2021/07/26 05:41:45;;;;;;;7.10;3.40;;;19.20;1.00;;;;;;5011024;28;20444;-71
2021/07/26 05:44:12;;;;;;;4.83;3.10;;;19.40;1.00;;;;;;5008688;28;20237;-71
2021/07/26 05:46:38;;;;;;;7.17;3.80;;;19.50;1.00;;;;;;5008665;28;20252;-71
2021/07/26 05:49:04;;;;;;;5.23;3.77;;;19.50;1.00;;;;;;5008675;28;21019;-71
2021/07/26 05:51:29;;;;;;;5.23;3.30;;;19.60;1.00;;;;;;5005812;28;20645;-71
2021/07/26 05:53:55;;;;;;;5.50;3.77;;;19.70;1.00;;;;;;5010321;28;20976;-71
2021/07/26 05:56:21;;;;;;;3.87;3.10;;;19.70;1.00;;;;;;5015798;28;20190;-71
2021/07/26 05:58:49;;;;;;;4.20;3.57;;;19.80;1.00;;;;;;5010398;28;20211;-71
2021/07/26 06:03:45;;;;;;;4.13;3.37;;;19.90;1.00;;;;;;5011499;28;20529;-71
2021/07/26 06:06:10;;;;;;;7.07;2.53;;;20.00;1.00;;;;;;5007331;28;20959;-71
2021/07/26 06:08:36;;;;;;;3.73;2.93;;;20.00;1.00;;;;;;5009366;28;20458;-71
2021/07/26 06:11:02;;;;;;;4.60;2.87;;;20.00;1.00;;;;;;5011694;28;20200;-71
2021/07/26 06:13:29;;;;;;;4.93;2.73;;;20.00;1.00;;;;;;5008298;28;20192;-71
2021/07/26 06:15:55;;;;;;;4.30;3.13;;;20.00;1.00;;;;;;5004903;28;20499;-71
2021/07/26 06:18:20;;;;;;;4.40;3.20;;;20.00;1.00;;;;;;5007931;28;21643;-71
2021/07/26 06:20:46;;;;;;;3.43;2.67;;;20.10;1.00;;;;;;5007902;28;20437;-71
2021/07/26 06:23:12;;;;;;;4.67;3.47;;;20.10;1.00;;;;;;5007957;28;20204;-71
2021/07/26 06:25:37;;;;;;;3.93;3.07;;;20.10;1.00;;;;;;5013012;28;20176;-71
2021/07/26 06:28:03;;;;;;;3.30;2.70;;;20.20;1.00;;;;;;5011651;28;20187;-71
2021/07/26 06:30:29;;;;;;;3.90;2.50;;;20.20;1.00;;;;;;5011516;28;20194;-71
2021/07/26 06:32:55;;;;;;;7.13;2.60;;;20.20;1.00;;;;;;5008620;28;20745;-71
2021/07/26 06:35:21;;;;;;;3.90;2.77;;;20.30;1.00;;;;;;5012325;28;20203;-71
2021/07/26 06:37:47;;;;;;;4.40;2.87;;;20.30;1.00;;;;;;5012881;28;20505;-71
2021/07/26 06:40:15;;;;;;;2.97;2.73;;;20.40;1.00;;;;;;5009963;28;20960;-71
2021/07/26 06:42:41;;;;;;;3.33;2.30;;;20.50;1.00;;;;;;5001282;28;20207;-71
2021/07/26 06:45:07;;;;;;;10.63;3.10;;;20.50;1.00;;;;;;5005057;28;20434;-71
2021/07/26 06:47:34;;;;;;;3.77;2.80;;;20.60;1.00;;;;;;5000337;28;20454;-71
2021/07/26 06:49:59;;;;;;;4.37;2.80;;;20.80;1.00;;;;;;5009430;28;20442;-71
2021/07/26 06:52:25;;;;;;;4.53;2.60;;;20.80;1.00;;;;;;5010014;28;22370;-72
2021/07/26 06:54:51;;;;;;;4.70;2.80;;;20.90;1.00;;;;;;5005916;28;20226;-71
2021/07/26 06:57:16;;;;;;;2.70;2.27;;;21.00;1.00;;;;;;5008559;28;20773;-72
2021/07/26 06:59:42;;;;;;;4.73;2.80;;;21.10;1.00;;;;;;5011375;28;20879;-72
2021/07/26 07:02:08;;;;;;;5.00;2.97;;;21.20;1.00;;;;;;5007040;28;20184;-71
2021/07/26 07:04:33;;;;;;;4.80;2.37;;;21.10;1.00;;;;;;5006764;28;20215;-72
2021/07/26 07:06:59;;;;;;;3.53;2.37;;;21.20;1.00;;;;;;5010438;28;20758;-71
2021/07/26 07:09:25;;;;;;;3.83;2.70;;;21.30;1.00;;;;;;5003294;28;20204;-71
2021/07/26 07:11:51;;;;;;;3.00;2.37;;;21.20;1.00;;;;;;5011330;28;20446;-72
2021/07/26 07:14:17;;;;;;;4.47;2.63;;;21.30;1.00;;;;;;5012655;28;20573;-71
2021/07/26 07:16:42;;;;;;;3.07;2.53;;;21.30;1.00;;;;;;5012316;28;20199;-72
2021/07/26 07:19:08;;;;;;;5.30;2.37;;;21.30;1.00;;;;;;5006571;28;20211;-72
2021/07/26 07:21:34;;;;;;;4.90;2.60;;;21.30;1.00;;;;;;5024044;28;20183;-72
2021/07/26 07:24:02;;;;;;;3.80;2.90;;;21.40;1.00;;;;;;5003821;28;21444;-71
2021/07/26 07:26:29;;;;;;;3.63;2.63;;;21.40;1.00;;;;;;5006089;28;20454;-72
2021/07/26 07:28:56;;;;;;;7.00;2.87;;;21.50;1.00;;;;;;5015482;28;20449;-71
2021/07/26 07:31:27;;;;;;;3.30;2.83;;;21.50;1.00;;;;;;5013914;28;20504;-72
2021/07/26 07:33:55;;;;;;;6.47;2.97;;;21.60;1.00;;;;;;5009167;28;20541;-70
2021/07/26 07:36:22;;;;;;;3.70;2.57;;;21.50;1.00;;;;;;5012972;28;20525;-71
2021/07/26 07:38:49;;;;;;;4.70;3.10;;;21.50;1.00;;;;;;5006184;28;20478;-72
2021/07/26 07:41:16;;;;;;;15.87;11.53;;;21.40;1.00;;;;;;5013893;28;20484;-72
2021/07/26 07:43:42;;;;;;;5.27;2.90;;;21.40;1.00;;;;;;5011823;28;20439;-71
2021/07/26 07:46:08;;;;;;;3.20;2.90;;;21.40;1.00;;;;;;5014629;28;20497;-71
2021/07/26 07:48:34;;;;;;;4.77;2.77;;;21.20;1.00;;;;;;5015061;28;20562;-72
2021/07/26 07:51:00;;;;;;;5.80;2.70;;;21.20;1.00;;;;;;5009683;28;20245;-71
2021/07/26 07:53:26;;;;;;;5.50;2.70;;;21.30;1.00;;;;;;5014854;28;20520;-71
2021/07/26 07:55:52;;;;;;;3.23;2.80;;;21.40;1.00;;;;;;5016643;28;20842;-71
2021/07/26 07:58:18;;;;;;;4.50;2.50;;;21.50;1.00;;;;;;5014794;28;20669;-71
2021/07/26 08:00:44;;;;;;;4.20;3.03;;;21.60;1.00;;;;;;5031291;28;20193;-71
2021/07/26 08:03:10;;;;;;;3.00;2.70;;;21.50;1.00;;;;;;5014312;28;20492;-72
2021/07/26 08:05:35;;;;;;;5.30;3.60;;;21.40;1.00;;;;;;5013349;28;20184;-71
2021/07/26 08:08:01;;;;;;;4.80;2.90;;;21.30;1.00;;;;;;5016362;28;20184;-72
2021/07/26 08:10:27;;;;;;;4.10;3.00;;;21.20;1.00;;;;;;5014113;28;20243;-71
2021/07/26 08:12:52;;;;;;;4.20;3.13;;;21.30;1.00;;;;;;5012367;28;20188;-71
2021/07/26 08:15:19;;;;;;;5.07;2.93;;;21.40;1.00;;;;;;5012837;28;20183;-71
2021/07/26 08:17:46;;;;;;;6.53;2.97;;;21.40;1.00;;;;;;5030075;28;20196;-71
2021/07/26 08:20:15;;;;;;;4.33;3.20;;;21.50;1.00;;;;;;5019264;28;20935;-71
2021/07/26 08:22:41;;;;;;;8.83;3.50;;;21.50;1.00;;;;;;5015502;28;20443;-71
2021/07/26 08:25:08;;;;;;;5.20;3.10;;;21.50;1.00;;;;;;5018444;28;20519;-71
2021/07/26 08:27:54;;;;;;;4.23;3.67;;;21.60;1.00;;;;;;5015841;28;20477;-71
2021/07/26 08:30:24;;;;;;;4.77;3.47;;;21.70;1.00;;;;;;5012515;28;20450;-71
2021/07/26 08:32:50;;;;;;;5.00;3.63;;;21.80;1.00;;;;;;5013089;28;20547;-72
2021/07/26 08:35:17;;;;;;;8.70;3.90;;;21.80;1.00;;;;;;5027442;28;20486;-71
2021/07/26 08:37:43;;;;;;;5.73;4.10;;;21.70;1.00;;;;;;5015107;28;20577;-70
2021/07/26 08:40:09;;;;;;;7.30;4.30;;;21.60;1.00;;;;;;5011589;28;21147;-71
2021/07/26 08:42:35;;;;;;;5.77;4.63;;;21.40;1.00;;;;;;5014687;28;20206;-71
2021/07/26 08:45:00;;;;;;;6.33;4.20;;;21.40;1.00;;;;;;5010410;28;20450;-72
2021/07/26 08:47:29;;;;;;;4.23;3.80;;;21.40;1.00;;;;;;5011655;28;20176;-71
2021/07/26 08:49:59;;;;;;;4.63;4.10;;;21.60;1.00;;;;;;5014564;28;20220;-72
2021/07/26 08:52:27;;;;;;;5.13;4.13;;;21.80;1.00;;;;;;5005093;28;20470;-71
2021/07/26 08:54:56;;;;;;;6.73;4.37;;;22.00;1.00;;;;;;5015177;28;20463;-71
2021/07/26 08:57:23;;;;;;;4.57;3.60;;;22.00;1.00;;;;;;5016756;28;20447;-72
2021/07/26 08:59:48;;;;;;;6.90;3.43;;;22.00;1.00;;;;;;5014438;28;20471;-71
2021/07/26 09:02:14;;;;;;;4.93;3.67;;;22.10;1.00;;;;;;5014960;28;20529;-72
2021/07/26 09:04:40;;;;;;;5.20;3.87;;;22.30;1.00;;;;;;5013008;28;20180;-72
2021/07/26 09:07:06;;;;;;;3.90;3.00;;;22.40;1.00;;;;;;5017452;28;20191;-72
2021/07/26 09:09:53;;;;;;;5.17;3.90;;;22.60;1.00;;;;;;5014695;28;20234;-71
2021/07/26 09:12:32;;;;;;;4.07;3.20;;;22.80;1.00;;;;;;5032108;28;20449;-71
2021/07/26 09:14:59;;;;;;;5.00;3.70;;;22.60;1.00;;;;;;5015785;28;20454;-71
2021/07/26 09:17:35;;;;;;;4.33;3.93;;;22.10;1.00;;;;;;5014971;28;20822;-71
2021/07/26 09:20:01;;;;;;;5.00;4.20;;;22.10;1.00;;;;;;5011650;28;20957;-71
2021/07/26 09:22:38;;;;;;;5.30;3.50;;;22.40;1.00;;;;;;5018517;28;20488;-71
2021/07/26 09:25:11;;;;;;;6.27;4.27;;;22.50;1.00;;;;;;5013759;28;20466;-71
2021/07/26 09:27:36;;;;;;;7.67;4.00;;;22.50;1.00;;;;;;5019948;28;20446;-71
2021/07/26 09:30:13;;;;;;;5.30;3.20;;;22.60;1.00;;;;;;5013224;28;20450;-71
2021/07/26 09:32:40;;;;;;;4.03;3.00;;;22.40;1.00;;;;;;5013783;28;21414;-71
2021/07/26 09:35:07;;;;;;;3.63;3.33;;;22.60;1.00;;;;;;5014118;28;20458;-71
2021/07/26 09:37:33;;;;;;;3.87;3.47;;;22.60;1.00;;;;;;5016354;28;20631;-71
2021/07/26 09:40:22;;;;;;;5.17;3.23;;;22.70;1.00;;;;;;5016713;28;20545;-71
2021/07/26 09:42:51;;;;;;;3.17;2.70;;;22.60;1.00;;;;;;5016238;28;20445;-71
2021/07/26 09:45:22;;;;;;;5.73;3.67;;;22.80;1.00;;;;;;5012173;28;20450;-71
2021/07/26 09:48:07;;;;;;;3.63;2.90;;;22.70;1.00;;;;;;5015440;28;20537;-72
2021/07/26 09:50:38;;;;;;;4.23;3.20;;;22.80;1.00;;;;;;5014716;28;20456;-71
2021/07/26 09:53:11;;;;;;;4.50;3.03;;;22.90;1.00;;;;;;5013523;28;20443;-71
2021/07/26 09:55:38;;;;;;;8.47;2.90;;;22.90;1.00;;;;;;5015345;28;21656;-72
2021/07/26 09:58:05;;;;;;;5.77;3.20;;;22.90;1.00;;;;;;5015938;28;20864;-72
2021/07/26 10:00:32;;;;;;;4.07;2.80;;;23.00;1.00;;;;;;5016456;28;20648;-72
2021/07/26 10:02:58;;;;;;;4.80;2.93;;;22.90;1.00;;;;;;5013319;28;20449;-71
2021/07/26 10:05:28;;;;;;;3.60;3.00;;;22.80;1.00;;;;;;5011543;28;20446;-71
2021/07/26 10:07:54;;;;;;;4.37;2.90;;;22.80;1.00;;;;;;5013550;28;20463;-71
2021/07/26 10:10:21;;;;;;;5.63;3.17;;;22.80;1.00;;;;;;5023419;28;20466;-71
2021/07/26 10:12:51;;;;;;;3.70;2.93;;;22.80;1.00;;;;;;5015971;28;20215;-71
2021/07/26 10:15:19;;;;;;;3.87;3.17;;;23.00;1.00;;;;;;5008110;28;20982;-72
2021/07/26 10:17:47;;;;;;;3.70;3.03;;;22.90;1.00;;;;;;5005102;28;20476;-71
2021/07/26 10:20:19;;;;;;;5.83;3.03;;;22.90;1.00;;;;;;5002055;28;20455;-71
2021/07/26 10:22:51;;;;;;;3.60;3.00;;;22.80;1.00;;;;;;5008815;28;20471;-71
2021/07/26 10:25:23;;;;;;;4.30;3.30;;;22.70;1.00;;;;;;5007632;28;20466;-71
2021/07/26 10:27:55;;;;;;;4.40;3.13;;;22.50;1.00;;;;;;5008665;28;20461;-72
2021/07/26 10:30:32;;;;;;;4.23;3.20;;;22.60;1.00;;;;;;5006000;28;20485;-72
2021/07/26 10:32:59;;;;;;;4.57;3.90;;;22.70;1.00;;;;;;5022907;28;20442;-72
2021/07/26 10:35:51;;;;;;;5.80;3.70;;;22.90;1.00;;;;;;5010702;28;20446;-72
2021/07/26 10:38:45;;;;;;;5.57;3.07;;;23.10;1.00;;;;;;5007671;28;20563;-72
2021/07/26 10:41:42;;;;;;;3.10;2.63;;;23.20;1.00;;;;;;5004498;28;21396;-71
2021/07/26 10:44:28;;;;;;;5.33;3.33;;;23.10;1.00;;;;;;5009401;28;20608;-71
2021/07/26 10:46:56;;;;;;;6.33;2.90;;;23.00;1.00;;;;;;5003195;28;20458;-71
2021/07/26 10:49:45;;;;;;;3.70;2.87;;;23.10;1.00;;;;;;5006840;28;20529;-71
2021/07/26 10:52:25;;;;;;;5.07;2.70;;;23.10;1.00;;;;;;5005683;28;20447;-71
2021/07/26 10:54:51;;;;;;;4.53;3.13;;;23.10;1.00;;;;;;5007496;28;20457;-72
2021/07/26 10:57:43;;;;;;;3.37;2.80;;;23.20;1.00;;;;;;5008163;28;20954;-72
2021/07/26 11:00:12;;;;;;;4.10;2.73;;;23.30;1.00;;;;;;5004862;28;20433;-72
2021/07/26 11:02:39;;;;;;;3.67;2.90;;;23.30;1.00;;;;;;5004766;28;20446;-72
2021/07/26 11:05:24;;;;;;;4.70;2.90;;;23.40;1.00;;;;;;5010224;28;20801;-72
2021/07/26 11:08:30;;;;;;;7.40;3.10;;;23.50;1.00;;;;;;5013604;28;20446;-72
2021/07/26 11:10:57;;;;;;;4.77;2.93;;;23.40;1.00;;;;;;5009690;28;21034;-71
2021/07/26 11:13:43;;;;;;;4.30;2.67;;;23.50;1.00;;;;;;5009619;28;21334;-71
2021/07/26 11:16:08;;;;;;;3.43;2.73;;;23.80;1.00;;;;;;5020314;28;20508;-72
2021/07/26 11:18:39;;;;;;;4.60;2.77;;;24.00;1.00;;;;;;5010102;28;20506;-72
2021/07/26 11:21:16;;;;;;;4.23;3.10;;;24.20;1.00;;;;;;5012676;28;20437;-72
2021/07/26 11:23:53;;;;;;;3.43;2.80;;;24.20;1.00;;;;;;5006489;28;20442;-72
2021/07/26 11:26:25;;;;;;;5.30;3.03;;;24.10;1.00;;;;;;5006268;28;21413;-72
2021/07/26 11:28:53;;;;;;;3.30;2.77;;;23.80;1.00;;;;;;5010582;28;20446;-72
2021/07/26 11:31:33;;;;;;;3.50;2.80;;;23.60;1.00;;;;;;5008674;28;20449;-72
2021/07/26 11:34:08;;;;;;;3.43;2.80;;;23.50;1.00;;;;;;5007404;28;20438;-72
2021/07/26 11:36:34;;;;;;;3.37;2.47;;;24.00;1.00;;;;;;5005966;28;20461;-72
2021/07/26 11:39:07;;;;;;;4.00;2.67;;;24.30;1.00;;;;;;5010872;28;20478;-72
2021/07/26 11:41:34;;;;;;;3.50;2.03;;;24.60;1.00;;;;;;5009868;28;20491;-71
2021/07/26 11:44:00;;;;;;;2.67;2.17;;;24.70;1.00;;;;;;5011530;28;20581;-71
2021/07/26 11:46:28;;;;;;;3.47;2.40;;;24.80;1.00;;;;;;5004221;28;20442;-72
2021/07/26 11:49:00;;;;;;;4.50;2.20;;;24.60;1.00;;;;;;5010036;28;20559;-71
2021/07/26 11:51:31;;;;;;;3.63;2.20;;;24.20;1.00;;;;;;5008040;28;20905;-71
2021/07/26 11:53:58;;;;;;;3.50;2.57;;;24.20;1.00;;;;;;5010262;28;20500;-72
2021/07/26 11:56:28;;;;;;;3.40;2.40;;;24.30;1.00;;;;;;5013885;28;20438;-71
2021/07/26 11:59:10;;;;;;;4.67;2.47;;;24.60;1.00;;;;;;5014131;28;20561;-72
2021/07/26 12:01:37;;;;;;;2.87;2.33;;;24.90;1.00;;;;;;5010718;28;20489;-71
2021/07/26 12:04:03;;;;;;;3.90;1.90;;;25.00;1.00;;;;;;5010150;28;20752;-71
2021/07/26 12:06:30;;;;;;;3.10;2.30;;;25.10;1.00;;;;;;5011141;28;20439;-71
2021/07/26 12:08:58;;;;;;;2.53;2.27;;;25.20;1.00;;;;;;5006600;28;20508;-72
2021/07/26 12:11:24;;;;;;;3.40;2.03;;;25.00;1.00;;;;;;5006261;28;20485;-71
2021/07/26 12:13:49;;;;;;;2.40;2.03;;;24.50;1.00;;;;;;5009059;28;20556;-72
2021/07/26 12:16:19;;;;;;;2.90;2.10;;;24.20;1.00;;;;;;5008737;28;20231;-71
2021/07/26 12:18:44;;;;;;;4.30;2.40;;;24.30;1.00;;;;;;5009594;28;20210;-73
2021/07/26 12:21:11;;;;;;;3.13;2.40;;;24.60;1.00;;;;;;5008471;28;20496;-71
2021/07/26 12:23:37;;;;;;;2.23;1.90;;;24.90;1.00;;;;;;5006233;28;20180;-72
2021/07/26 12:26:10;;;;;;;4.90;2.07;;;24.60;1.00;;;;;;5006819;28;20473;-72
2021/07/26 12:28:49;;;;;;;3.13;2.37;;;24.30;1.00;;;;;;5003538;28;21022;-71
2021/07/26 12:31:30;;;;;;;3.20;2.40;;;24.00;1.00;;;;;;5008011;28;20541;-72
2021/07/26 12:34:12;;;;;;;4.03;2.60;;;23.80;1.00;;;;;;5009428;28;21018;-72
2021/07/26 12:36:38;;;;;;;3.00;2.60;;;23.90;1.00;;;;;;5008778;28;20520;-72
2021/07/26 12:39:07;;;;;;;3.80;2.20;;;24.40;1.00;;;;;;5006971;28;20864;-72
2021/07/26 12:41:33;;;;;;;4.00;2.33;;;24.70;1.00;;;;;;5004292;28;20184;-72
2021/07/26 12:44:30;;;;;;;3.50;2.50;;;24.80;1.00;;;;;;5006523;28;20500;-72
2021/07/26 12:46:56;;;;;;;3.70;2.20;;;24.70;1.00;;;;;;5012836;28;20439;-72
2021/07/26 12:49:24;;;;;;;5.73;2.23;;;24.40;1.00;;;;;;5008606;28;20966;-72
2021/07/26 12:51:52;;;;;;;4.13;2.63;;;24.10;1.00;;;;;;5010272;28;20194;-71
2021/07/26 12:54:19;;;;;;;4.47;2.20;;;23.90;1.00;;;;;;5008137;28;20438;-72
2021/07/26 12:56:45;;;;;;;2.60;2.10;;;24.20;1.00;;;;;;5007208;28;20454;-71
2021/07/26 12:59:11;;;;;;;7.03;2.30;;;24.70;1.00;;;;;;5009353;28;20826;-71
2021/07/26 13:01:37;;;;;;;2.90;2.50;;;25.20;1.00;;;;;;5009928;28;20612;-72
2021/07/26 13:04:08;;;;;;;2.80;1.70;;;25.20;1.00;;;;;;5006129;28;20994;-71
2021/07/26 13:06:36;;;;;;;3.70;2.57;;;24.90;1.00;;;;;;5010110;28;20450;-72
2021/07/26 13:09:01;;;;;;;3.53;2.03;;;24.60;1.00;;;;;;5008154;28;20472;-72